sensor_id;sensor_type;location;lat;lon;timestamp;P1;durP1;ratioP1;P2;durP2;ratioP2
19312;SDS011;9791;50.820;4.406;2023-04-03T00:02:19;12.00;;;6.40;;
19312;SDS011;9791;50.820;4.406;2023-04-03T00:04:45;13.73;;;5.70;;
19312;SDS011;9791;50.820;4.406;2023-04-03T00:07:11;9.43;;;6.03;;
19312;SDS011;9791;50.820;4.406;2023-04-03T00:09:39;9.13;;;6.20;;
19312;SDS011;9791;50.820;4.406;2023-04-03T00:12:05;10.47;;;6.40;;
19312;SDS011;9791;50.820;4.406;2023-04-03T00:14:31;10.93;;;6.33;;
19312;SDS011;9791;50.820;4.406;2023-04-03T00:16:57;13.60;;;6.37;;
19312;SDS011;9791;50.820;4.406;2023-04-03T00:19:23;11.73;;;6.67;;
19312;SDS011;9791;50.820;4.406;2023-04-03T00:21:49;10.20;;;6.40;;
19312;SDS011;9791;50.820;4.406;2023-04-03T00:24:16;11.13;;;6.13;;
19312;SDS011;9791;50.820;4.406;2023-04-03T00:26:42;10.60;;;6.33;;
19312;SDS011;9791;50.820;4.406;2023-04-03T00:29:08;11.43;;;6.40;;
19312;SDS011;9791;50.820;4.406;2023-04-03T00:31:34;12.13;;;7.20;;
19312;SDS011;9791;50.820;4.406;2023-04-03T00:34:00;13.67;;;7.07;;
19312;SDS011;9791;50.820;4.406;2023-04-03T00:36:26;10.97;;;6.60;;
19312;SDS011;9791;50.820;4.406;2023-04-03T00:38:52;9.20;;;6.13;;
19312;SDS011;9791;50.820;4.406;2023-04-03T00:41:18;11.70;;;5.67;;
19312;SDS011;9791;50.820;4.406;2023-04-03T00:43:44;9.23;;;5.67;;
19312;SDS011;9791;50.820;4.406;2023-04-03T00:46:10;13.17;;;6.00;;
19312;SDS011;9791;50.820;4.406;2023-04-03T00:48:40;9.23;;;6.00;;
19312;SDS011;9791;50.820;4.406;2023-04-03T00:51:09;11.37;;;5.37;;
19312;SDS011;9791;50.820;4.406;2023-04-03T00:53:39;11.57;;;6.13;;
19312;SDS011;9791;50.820;4.406;2023-04-03T00:56:06;12.00;;;5.33;;
19312;SDS011;9791;50.820;4.406;2023-04-03T00:58:39;8.67;;;5.57;;
19312;SDS011;9791;50.820;4.406;2023-04-03T01:01:07;10.07;;;5.83;;
19312;SDS011;9791;50.820;4.406;2023-04-03T01:03:33;16.07;;;6.57;;
19312;SDS011;9791;50.820;4.406;2023-04-03T01:06:00;9.23;;;5.40;;
19312;SDS011;9791;50.820;4.406;2023-04-03T01:08:26;10.03;;;5.60;;
19312;SDS011;9791;50.820;4.406;2023-04-03T01:10:52;14.07;;;6.33;;
19312;SDS011;9791;50.820;4.406;2023-04-03T01:13:22;12.27;;;6.70;;
19312;SDS011;9791;50.820;4.406;2023-04-03T01:15:49;12.20;;;6.03;;
19312;SDS011;9791;50.820;4.406;2023-04-03T01:18:15;9.27;;;5.57;;
19312;SDS011;9791;50.820;4.406;2023-04-03T01:23:29;9.00;;;6.10;;
19312;SDS011;9791;50.820;4.406;2023-04-03T01:25:58;9.87;;;5.97;;
19312;SDS011;9791;50.820;4.406;2023-04-03T01:31:08;11.47;;;5.77;;
19312;SDS011;9791;50.820;4.406;2023-04-03T01:33:36;11.00;;;5.80;;
19312;SDS011;9791;50.820;4.406;2023-04-03T01:36:03;11.90;;;5.80;;
19312;SDS011;9791;50.820;4.406;2023-04-03T01:38:29;8.50;;;5.47;;
19312;SDS011;9791;50.820;4.406;2023-04-03T01:40:55;10.60;;;6.30;;
19312;SDS011;9791;50.820;4.406;2023-04-03T01:43:21;9.33;;;5.60;;
19312;SDS011;9791;50.820;4.406;2023-04-03T01:45:48;8.50;;;5.43;;
19312;SDS011;9791;50.820;4.406;2023-04-03T01:48:15;8.43;;;5.60;;
19312;SDS011;9791;50.820;4.406;2023-04-03T01:50:41;8.40;;;5.40;;
19312;SDS011;9791;50.820;4.406;2023-04-03T01:53:08;7.47;;;5.20;;
19312;SDS011;9791;50.820;4.406;2023-04-03T01:55:34;9.27;;;5.50;;
19312;SDS011;9791;50.820;4.406;2023-04-03T01:58:00;13.00;;;5.90;;
19312;SDS011;9791;50.820;4.406;2023-04-03T02:00:26;8.97;;;5.50;;
19312;SDS011;9791;50.820;4.406;2023-04-03T02:02:52;9.73;;;5.67;;
19312;SDS011;9791;50.820;4.406;2023-04-03T02:05:18;8.33;;;5.57;;
19312;SDS011;9791;50.820;4.406;2023-04-03T02:07:45;9.20;;;5.57;;
19312;SDS011;9791;50.820;4.406;2023-04-03T02:10:11;7.77;;;5.23;;
19312;SDS011;9791;50.820;4.406;2023-04-03T02:12:37;9.53;;;5.10;;
19312;SDS011;9791;50.820;4.406;2023-04-03T02:15:03;10.57;;;6.03;;
19312;SDS011;9791;50.820;4.406;2023-04-03T02:17:29;10.70;;;5.50;;
19312;SDS011;9791;50.820;4.406;2023-04-03T02:19:55;8.13;;;5.70;;
19312;SDS011;9791;50.820;4.406;2023-04-03T02:22:21;8.57;;;5.47;;
19312;SDS011;9791;50.820;4.406;2023-04-03T02:24:47;8.63;;;5.63;;
19312;SDS011;9791;50.820;4.406;2023-04-03T02:27:13;10.73;;;7.10;;
19312;SDS011;9791;50.820;4.406;2023-04-03T02:29:39;11.53;;;6.10;;
19312;SDS011;9791;50.820;4.406;2023-04-03T02:32:06;9.13;;;6.67;;
19312;SDS011;9791;50.820;4.406;2023-04-03T02:34:32;10.23;;;5.93;;
19312;SDS011;9791;50.820;4.406;2023-04-03T02:36:58;13.57;;;6.40;;
19312;SDS011;9791;50.820;4.406;2023-04-03T02:39:24;12.07;;;5.77;;
19312;SDS011;9791;50.820;4.406;2023-04-03T02:41:51;10.30;;;5.87;;
19312;SDS011;9791;50.820;4.406;2023-04-03T02:44:17;9.70;;;5.40;;
19312;SDS011;9791;50.820;4.406;2023-04-03T02:46:43;9.17;;;5.60;;
19312;SDS011;9791;50.820;4.406;2023-04-03T02:49:09;9.97;;;5.60;;
19312;SDS011;9791;50.820;4.406;2023-04-03T02:51:36;8.67;;;5.80;;
19312;SDS011;9791;50.820;4.406;2023-04-03T02:54:02;10.33;;;6.20;;
19312;SDS011;9791;50.820;4.406;2023-04-03T02:56:28;10.33;;;5.80;;
19312;SDS011;9791;50.820;4.406;2023-04-03T02:58:54;8.53;;;5.60;;
19312;SDS011;9791;50.820;4.406;2023-04-03T03:01:20;10.87;;;6.17;;
19312;SDS011;9791;50.820;4.406;2023-04-03T03:03:46;8.17;;;5.57;;
19312;SDS011;9791;50.820;4.406;2023-04-03T03:06:13;9.73;;;5.90;;
19312;SDS011;9791;50.820;4.406;2023-04-03T03:08:40;8.57;;;5.50;;
19312;SDS011;9791;50.820;4.406;2023-04-03T03:11:06;9.63;;;6.23;;
19312;SDS011;9791;50.820;4.406;2023-04-03T03:13:33;9.77;;;5.63;;
19312;SDS011;9791;50.820;4.406;2023-04-03T03:15:59;10.90;;;5.33;;
19312;SDS011;9791;50.820;4.406;2023-04-03T03:18:26;10.40;;;6.67;;
19312;SDS011;9791;50.820;4.406;2023-04-03T03:20:52;11.63;;;6.10;;
19312;SDS011;9791;50.820;4.406;2023-04-03T03:23:18;9.50;;;6.13;;
19312;SDS011;9791;50.820;4.406;2023-04-03T03:25:44;10.27;;;5.73;;
19312;SDS011;9791;50.820;4.406;2023-04-03T03:28:10;8.50;;;5.70;;
19312;SDS011;9791;50.820;4.406;2023-04-03T03:30:37;14.10;;;6.20;;
19312;SDS011;9791;50.820;4.406;2023-04-03T03:33:03;13.93;;;6.37;;
19312;SDS011;9791;50.820;4.406;2023-04-03T03:35:29;12.37;;;5.80;;
19312;SDS011;9791;50.820;4.406;2023-04-03T03:37:55;8.80;;;5.50;;
19312;SDS011;9791;50.820;4.406;2023-04-03T03:40:21;11.70;;;6.10;;
19312;SDS011;9791;50.820;4.406;2023-04-03T03:42:47;8.93;;;5.70;;
19312;SDS011;9791;50.820;4.406;2023-04-03T03:45:13;9.20;;;6.00;;
19312;SDS011;9791;50.820;4.406;2023-04-03T03:47:39;9.27;;;6.03;;
19312;SDS011;9791;50.820;4.406;2023-04-03T03:50:06;12.37;;;6.63;;
19312;SDS011;9791;50.820;4.406;2023-04-03T03:52:32;11.70;;;6.33;;
19312;SDS011;9791;50.820;4.406;2023-04-03T03:54:58;10.60;;;6.03;;
19312;SDS011;9791;50.820;4.406;2023-04-03T03:57:24;12.10;;;6.07;;
19312;SDS011;9791;50.820;4.406;2023-04-03T03:59:52;10.70;;;6.40;;
19312;SDS011;9791;50.820;4.406;2023-04-03T04:02:18;13.73;;;7.00;;
19312;SDS011;9791;50.820;4.406;2023-04-03T04:04:44;10.80;;;5.90;;
19312;SDS011;9791;50.820;4.406;2023-04-03T04:07:11;15.10;;;6.33;;
19312;SDS011;9791;50.820;4.406;2023-04-03T04:09:37;7.87;;;5.93;;
19312;SDS011;9791;50.820;4.406;2023-04-03T04:12:03;11.50;;;6.77;;
19312;SDS011;9791;50.820;4.406;2023-04-03T04:14:29;9.07;;;6.07;;
19312;SDS011;9791;50.820;4.406;2023-04-03T04:16:55;10.87;;;6.70;;
19312;SDS011;9791;50.820;4.406;2023-04-03T04:19:21;12.67;;;6.83;;
19312;SDS011;9791;50.820;4.406;2023-04-03T04:21:47;14.23;;;7.00;;
19312;SDS011;9791;50.820;4.406;2023-04-03T04:24:13;11.93;;;7.07;;
19312;SDS011;9791;50.820;4.406;2023-04-03T04:26:39;11.03;;;6.73;;
19312;SDS011;9791;50.820;4.406;2023-04-03T04:29:05;15.57;;;7.37;;
19312;SDS011;9791;50.820;4.406;2023-04-03T04:31:31;11.73;;;6.90;;
19312;SDS011;9791;50.820;4.406;2023-04-03T04:33:58;10.07;;;7.00;;
19312;SDS011;9791;50.820;4.406;2023-04-03T04:36:24;12.80;;;6.80;;
19312;SDS011;9791;50.820;4.406;2023-04-03T04:38:50;12.17;;;7.43;;
19312;SDS011;9791;50.820;4.406;2023-04-03T04:41:18;10.67;;;7.20;;
19312;SDS011;9791;50.820;4.406;2023-04-03T04:43:46;9.70;;;7.03;;
19312;SDS011;9791;50.820;4.406;2023-04-03T04:46:12;13.43;;;7.63;;
19312;SDS011;9791;50.820;4.406;2023-04-03T04:48:38;11.67;;;7.43;;
19312;SDS011;9791;50.820;4.406;2023-04-03T04:51:05;12.97;;;7.97;;
19312;SDS011;9791;50.820;4.406;2023-04-03T04:53:31;12.80;;;7.97;;
19312;SDS011;9791;50.820;4.406;2023-04-03T04:55:57;12.23;;;8.17;;
19312;SDS011;9791;50.820;4.406;2023-04-03T04:58:23;12.33;;;7.53;;
19312;SDS011;9791;50.820;4.406;2023-04-03T05:00:50;15.93;;;7.97;;
19312;SDS011;9791;50.820;4.406;2023-04-03T05:03:23;11.60;;;7.83;;
19312;SDS011;9791;50.820;4.406;2023-04-03T05:05:49;12.57;;;8.00;;
19312;SDS011;9791;50.820;4.406;2023-04-03T05:08:15;11.40;;;7.50;;
19312;SDS011;9791;50.820;4.406;2023-04-03T05:10:41;13.03;;;8.03;;
19312;SDS011;9791;50.820;4.406;2023-04-03T05:13:07;12.33;;;8.00;;
19312;SDS011;9791;50.820;4.406;2023-04-03T05:15:33;11.53;;;8.03;;
19312;SDS011;9791;50.820;4.406;2023-04-03T05:17:59;13.53;;;7.87;;
19312;SDS011;9791;50.820;4.406;2023-04-03T05:20:26;12.50;;;7.93;;
19312;SDS011;9791;50.820;4.406;2023-04-03T05:22:52;10.73;;;7.80;;
19312;SDS011;9791;50.820;4.406;2023-04-03T05:25:18;16.37;;;7.83;;
19312;SDS011;9791;50.820;4.406;2023-04-03T05:27:44;12.87;;;7.87;;
19312;SDS011;9791;50.820;4.406;2023-04-03T05:30:10;12.77;;;8.07;;
19312;SDS011;9791;50.820;4.406;2023-04-03T05:32:36;14.47;;;9.00;;
19312;SDS011;9791;50.820;4.406;2023-04-03T05:35:02;15.37;;;8.30;;
19312;SDS011;9791;50.820;4.406;2023-04-03T05:37:28;12.40;;;8.57;;
19312;SDS011;9791;50.820;4.406;2023-04-03T05:39:54;12.00;;;7.87;;
19312;SDS011;9791;50.820;4.406;2023-04-03T05:42:20;15.00;;;8.00;;
19312;SDS011;9791;50.820;4.406;2023-04-03T05:44:46;12.30;;;8.27;;
19312;SDS011;9791;50.820;4.406;2023-04-03T05:47:13;12.17;;;8.07;;
19312;SDS011;9791;50.820;4.406;2023-04-03T05:49:39;14.70;;;8.17;;
19312;SDS011;9791;50.820;4.406;2023-04-03T05:52:06;10.47;;;7.60;;
19312;SDS011;9791;50.820;4.406;2023-04-03T05:54:32;10.97;;;6.60;;
19312;SDS011;9791;50.820;4.406;2023-04-03T05:56:58;9.70;;;6.40;;
19312;SDS011;9791;50.820;4.406;2023-04-03T05:59:24;9.17;;;6.30;;
19312;SDS011;9791;50.820;4.406;2023-04-03T06:01:51;8.35;;;5.90;;
19312;SDS011;9791;50.820;4.406;2023-04-03T06:04:17;11.13;;;5.88;;
19312;SDS011;9791;50.820;4.406;2023-04-03T06:06:44;9.43;;;5.18;;
19312;SDS011;9791;50.820;4.406;2023-04-03T06:09:11;9.07;;;5.32;;
19312;SDS011;9791;50.820;4.406;2023-04-03T06:11:37;8.32;;;5.50;;
19312;SDS011;9791;50.820;4.406;2023-04-03T06:14:04;9.38;;;5.93;;
19312;SDS011;9791;50.820;4.406;2023-04-03T06:16:30;11.15;;;5.60;;
19312;SDS011;9791;50.820;4.406;2023-04-03T06:18:56;8.65;;;5.47;;
19312;SDS011;9791;50.820;4.406;2023-04-03T06:21:22;8.75;;;5.40;;
19312;SDS011;9791;50.820;4.406;2023-04-03T06:23:48;8.02;;;5.03;;
19312;SDS011;9791;50.820;4.406;2023-04-03T06:26:14;7.70;;;5.28;;
19312;SDS011;9791;50.820;4.406;2023-04-03T06:28:40;8.13;;;5.25;;
19312;SDS011;9791;50.820;4.406;2023-04-03T06:31:06;13.93;;;5.85;;
19312;SDS011;9791;50.820;4.406;2023-04-03T06:33:33;9.23;;;5.60;;
19312;SDS011;9791;50.820;4.406;2023-04-03T06:36:02;11.73;;;6.25;;
19312;SDS011;9791;50.820;4.406;2023-04-03T06:38:28;9.25;;;5.60;;
19312;SDS011;9791;50.820;4.406;2023-04-03T06:40:54;8.15;;;5.45;;
19312;SDS011;9791;50.820;4.406;2023-04-03T06:43:21;9.45;;;5.38;;
19312;SDS011;9791;50.820;4.406;2023-04-03T06:45:47;9.63;;;5.45;;
19312;SDS011;9791;50.820;4.406;2023-04-03T06:48:13;7.68;;;5.25;;
19312;SDS011;9791;50.820;4.406;2023-04-03T06:50:39;10.63;;;5.45;;
19312;SDS011;9791;50.820;4.406;2023-04-03T06:53:06;11.60;;;5.30;;
19312;SDS011;9791;50.820;4.406;2023-04-03T06:55:32;10.75;;;4.97;;
19312;SDS011;9791;50.820;4.406;2023-04-03T06:57:58;8.80;;;5.00;;
19312;SDS011;9791;50.820;4.406;2023-04-03T07:00:24;8.93;;;4.68;;
19312;SDS011;9791;50.820;4.406;2023-04-03T07:02:51;8.63;;;4.80;;
19312;SDS011;9791;50.820;4.406;2023-04-03T07:05:17;7.35;;;5.10;;
19312;SDS011;9791;50.820;4.406;2023-04-03T07:07:43;7.57;;;4.53;;
19312;SDS011;9791;50.820;4.406;2023-04-03T07:10:10;8.55;;;4.50;;
19312;SDS011;9791;50.820;4.406;2023-04-03T07:12:36;7.82;;;4.38;;
19312;SDS011;9791;50.820;4.406;2023-04-03T07:15:03;8.88;;;4.57;;
19312;SDS011;9791;50.820;4.406;2023-04-03T07:17:29;6.57;;;4.30;;
19312;SDS011;9791;50.820;4.406;2023-04-03T07:19:56;7.07;;;4.53;;
19312;SDS011;9791;50.820;4.406;2023-04-03T07:22:22;10.95;;;4.28;;
19312;SDS011;9791;50.820;4.406;2023-04-03T07:24:48;7.68;;;4.45;;
19312;SDS011;9791;50.820;4.406;2023-04-03T07:27:14;7.53;;;4.15;;
19312;SDS011;9791;50.820;4.406;2023-04-03T07:29:40;9.77;;;4.25;;
19312;SDS011;9791;50.820;4.406;2023-04-03T07:32:07;7.45;;;4.38;;
19312;SDS011;9791;50.820;4.406;2023-04-03T07:34:33;9.77;;;3.70;;
19312;SDS011;9791;50.820;4.406;2023-04-03T07:37:00;7.35;;;4.47;;
19312;SDS011;9791;50.820;4.406;2023-04-03T07:39:26;11.55;;;3.80;;
19312;SDS011;9791;50.820;4.406;2023-04-03T07:41:53;7.70;;;4.40;;
19312;SDS011;9791;50.820;4.406;2023-04-03T07:44:20;7.43;;;4.43;;
19312;SDS011;9791;50.820;4.406;2023-04-03T07:46:46;6.68;;;3.83;;
19312;SDS011;9791;50.820;4.406;2023-04-03T07:49:13;7.05;;;3.85;;
19312;SDS011;9791;50.820;4.406;2023-04-03T07:51:39;7.13;;;3.90;;
19312;SDS011;9791;50.820;4.406;2023-04-03T07:54:05;8.13;;;3.47;;
19312;SDS011;9791;50.820;4.406;2023-04-03T07:56:31;10.88;;;4.07;;
19312;SDS011;9791;50.820;4.406;2023-04-03T07:58:58;7.97;;;3.85;;
19312;SDS011;9791;50.820;4.406;2023-04-03T08:01:24;6.65;;;3.38;;
19312;SDS011;9791;50.820;4.406;2023-04-03T08:03:50;5.82;;;3.28;;
19312;SDS011;9791;50.820;4.406;2023-04-03T08:06:17;7.35;;;3.03;;
19312;SDS011;9791;50.820;4.406;2023-04-03T08:08:43;7.00;;;3.38;;
19312;SDS011;9791;50.820;4.406;2023-04-03T08:11:09;7.45;;;3.78;;
19312;SDS011;9791;50.820;4.406;2023-04-03T08:13:36;8.27;;;3.03;;
19312;SDS011;9791;50.820;4.406;2023-04-03T08:16:11;6.38;;;3.13;;
19312;SDS011;9791;50.820;4.406;2023-04-03T08:18:38;7.35;;;2.90;;
19312;SDS011;9791;50.820;4.406;2023-04-03T08:21:10;6.30;;;3.28;;
19312;SDS011;9791;50.820;4.406;2023-04-03T08:23:37;5.28;;;3.05;;
19312;SDS011;9791;50.820;4.406;2023-04-03T08:26:07;7.10;;;3.00;;
19312;SDS011;9791;50.820;4.406;2023-04-03T08:28:33;7.45;;;2.60;;
19312;SDS011;9791;50.820;4.406;2023-04-03T08:31:02;5.10;;;2.72;;
19312;SDS011;9791;50.820;4.406;2023-04-03T08:33:29;6.03;;;2.90;;
19312;SDS011;9791;50.820;4.406;2023-04-03T08:35:55;6.03;;;3.03;;
19312;SDS011;9791;50.820;4.406;2023-04-03T08:38:21;5.63;;;2.90;;
19312;SDS011;9791;50.820;4.406;2023-04-03T08:40:47;19.75;;;4.07;;
19312;SDS011;9791;50.820;4.406;2023-04-03T08:45:46;22.25;;;3.42;;
19312;SDS011;9791;50.820;4.406;2023-04-03T08:50:42;8.00;;;2.70;;
19312;SDS011;9791;50.820;4.406;2023-04-03T08:53:14;6.82;;;2.50;;
19312;SDS011;9791;50.820;4.406;2023-04-03T08:55:49;5.63;;;2.65;;
19312;SDS011;9791;50.820;4.406;2023-04-03T08:58:20;7.38;;;2.35;;
19312;SDS011;9791;50.820;4.406;2023-04-03T09:00:48;6.28;;;2.70;;
19312;SDS011;9791;50.820;4.406;2023-04-03T09:03:16;5.18;;;2.60;;
19312;SDS011;9791;50.820;4.406;2023-04-03T09:06:05;5.38;;;2.63;;
19312;SDS011;9791;50.820;4.406;2023-04-03T09:14:02;15.63;;;3.63;;
19312;SDS011;9791;50.820;4.406;2023-04-03T09:16:39;12.05;;;3.30;;
19312;SDS011;9791;50.820;4.406;2023-04-03T09:19:22;11.05;;;2.33;;
19312;SDS011;9791;50.820;4.406;2023-04-03T09:21:51;6.75;;;2.40;;
19312;SDS011;9791;50.820;4.406;2023-04-03T09:24:17;8.27;;;2.95;;
19312;SDS011;9791;50.820;4.406;2023-04-03T09:26:58;6.68;;;2.60;;
19312;SDS011;9791;50.820;4.406;2023-04-03T09:29:26;7.90;;;2.90;;
19312;SDS011;9791;50.820;4.406;2023-04-03T09:32:02;17.67;;;3.47;;
19312;SDS011;9791;50.820;4.406;2023-04-03T09:34:30;26.13;;;4.03;;
19312;SDS011;9791;50.820;4.406;2023-04-03T09:37:00;22.05;;;3.75;;
19312;SDS011;9791;50.820;4.406;2023-04-03T09:39:31;11.93;;;2.65;;
19312;SDS011;9791;50.820;4.406;2023-04-03T09:41:59;25.10;;;3.28;;
19312;SDS011;9791;50.820;4.406;2023-04-03T09:44:26;16.95;;;3.22;;
19312;SDS011;9791;50.820;4.406;2023-04-03T09:46:53;6.88;;;2.13;;
19312;SDS011;9791;50.820;4.406;2023-04-03T09:49:19;5.50;;;2.10;;
19312;SDS011;9791;50.820;4.406;2023-04-03T09:51:45;11.82;;;2.80;;
19312;SDS011;9791;50.820;4.406;2023-04-03T09:54:31;7.00;;;2.10;;
19312;SDS011;9791;50.820;4.406;2023-04-03T09:57:00;5.30;;;1.77;;
19312;SDS011;9791;50.820;4.406;2023-04-03T09:59:27;4.95;;;1.70;;
19312;SDS011;9791;50.820;4.406;2023-04-03T10:02:00;6.70;;;1.83;;
19312;SDS011;9791;50.820;4.406;2023-04-03T10:04:36;9.85;;;1.83;;
19312;SDS011;9791;50.820;4.406;2023-04-03T10:07:03;4.22;;;1.70;;
19312;SDS011;9791;50.820;4.406;2023-04-03T10:09:30;7.07;;;2.28;;
19312;SDS011;9791;50.820;4.406;2023-04-03T10:14:22;6.50;;;2.20;;
19312;SDS011;9791;50.820;4.406;2023-04-03T10:16:53;8.02;;;2.38;;
19312;SDS011;9791;50.820;4.406;2023-04-03T10:24:28;14.23;;;2.58;;
19312;SDS011;9791;50.820;4.406;2023-04-03T10:27:02;6.70;;;1.90;;
19312;SDS011;9791;50.820;4.406;2023-04-03T10:29:34;6.70;;;1.88;;
19312;SDS011;9791;50.820;4.406;2023-04-03T10:34:41;6.85;;;1.67;;
19312;SDS011;9791;50.820;4.406;2023-04-03T10:37:21;5.55;;;2.13;;
19312;SDS011;9791;50.820;4.406;2023-04-03T10:39:57;5.78;;;1.75;;
19312;SDS011;9791;50.820;4.406;2023-04-03T10:47:46;6.57;;;2.30;;
19312;SDS011;9791;50.820;4.406;2023-04-03T10:58:29;5.65;;;1.90;;
19312;SDS011;9791;50.820;4.406;2023-04-03T11:00:56;6.45;;;1.98;;
19312;SDS011;9791;50.820;4.406;2023-04-03T11:03:44;5.55;;;1.60;;
19312;SDS011;9791;50.820;4.406;2023-04-03T11:06:11;4.40;;;1.60;;
19312;SDS011;9791;50.820;4.406;2023-04-03T11:08:42;5.20;;;1.80;;
19312;SDS011;9791;50.820;4.406;2023-04-03T11:11:14;4.35;;;1.60;;
19312;SDS011;9791;50.820;4.406;2023-04-03T11:13:43;5.40;;;1.92;;
19312;SDS011;9791;50.820;4.406;2023-04-03T11:16:16;4.50;;;1.60;;
19312;SDS011;9791;50.820;4.406;2023-04-03T11:18:52;3.67;;;1.40;;
19312;SDS011;9791;50.820;4.406;2023-04-03T11:21:20;4.82;;;1.83;;
19312;SDS011;9791;50.820;4.406;2023-04-03T11:23:48;4.72;;;1.40;;
19312;SDS011;9791;50.820;4.406;2023-04-03T11:26:18;7.15;;;1.85;;
19312;SDS011;9791;50.820;4.406;2023-04-03T11:28:46;5.28;;;1.70;;
19312;SDS011;9791;50.820;4.406;2023-04-03T11:36:39;6.53;;;1.77;;
19312;SDS011;9791;50.820;4.406;2023-04-03T11:39:10;6.88;;;1.70;;
19312;SDS011;9791;50.820;4.406;2023-04-03T11:41:42;4.25;;;1.58;;
19312;SDS011;9791;50.820;4.406;2023-04-03T11:46:54;4.53;;;1.33;;
19312;SDS011;9791;50.820;4.406;2023-04-03T11:52:11;4.70;;;1.50;;
19312;SDS011;9791;50.820;4.406;2023-04-03T11:57:22;8.63;;;1.75;;
19312;SDS011;9791;50.820;4.406;2023-04-03T11:59:48;6.97;;;1.67;;
19312;SDS011;9791;50.820;4.406;2023-04-03T12:07:52;5.30;;;1.67;;
19312;SDS011;9791;50.820;4.406;2023-04-03T12:10:31;3.22;;;1.45;;
19312;SDS011;9791;50.820;4.406;2023-04-03T12:12:57;8.50;;;1.70;;
19312;SDS011;9791;50.820;4.406;2023-04-03T12:15:25;5.22;;;1.40;;
19312;SDS011;9791;50.820;4.406;2023-04-03T12:17:52;6.68;;;1.80;;
19312;SDS011;9791;50.820;4.406;2023-04-03T12:25:50;7.60;;;1.67;;
19312;SDS011;9791;50.820;4.406;2023-04-03T12:28:16;3.90;;;1.60;;
19312;SDS011;9791;50.820;4.406;2023-04-03T12:30:43;4.18;;;1.52;;
19312;SDS011;9791;50.820;4.406;2023-04-03T12:36:04;4.75;;;1.85;;
19312;SDS011;9791;50.820;4.406;2023-04-03T12:48:37;7.20;;;1.77;;
19312;SDS011;9791;50.820;4.406;2023-04-03T12:51:04;5.18;;;1.73;;
19312;SDS011;9791;50.820;4.406;2023-04-03T12:53:34;4.63;;;1.63;;
19312;SDS011;9791;50.820;4.406;2023-04-03T12:58:46;5.43;;;1.63;;
19312;SDS011;9791;50.820;4.406;2023-04-03T13:01:22;4.28;;;1.70;;
19312;SDS011;9791;50.820;4.406;2023-04-03T13:03:50;4.18;;;1.60;;
19312;SDS011;9791;50.820;4.406;2023-04-03T13:06:18;4.00;;;1.67;;
19312;SDS011;9791;50.820;4.406;2023-04-03T13:08:58;5.55;;;1.77;;
19312;SDS011;9791;50.820;4.406;2023-04-03T13:11:33;3.42;;;1.55;;
19312;SDS011;9791;50.820;4.406;2023-04-03T13:14:02;3.13;;;1.50;;
19312;SDS011;9791;50.820;4.406;2023-04-03T13:16:30;3.17;;;1.50;;
19312;SDS011;9791;50.820;4.406;2023-04-03T13:18:56;5.38;;;1.70;;
19312;SDS011;9791;50.820;4.406;2023-04-03T13:21:25;6.13;;;1.50;;
19312;SDS011;9791;50.820;4.406;2023-04-03T13:23:53;3.65;;;1.67;;
19312;SDS011;9791;50.820;4.406;2023-04-03T13:26:20;6.80;;;1.50;;
19312;SDS011;9791;50.820;4.406;2023-04-03T13:28:47;5.43;;;1.58;;
19312;SDS011;9791;50.820;4.406;2023-04-03T13:31:19;6.15;;;1.70;;
19312;SDS011;9791;50.820;4.406;2023-04-03T13:34:10;5.93;;;1.58;;
19312;SDS011;9791;50.820;4.406;2023-04-03T13:36:38;7.00;;;1.48;;
19312;SDS011;9791;50.820;4.406;2023-04-03T13:39:27;4.47;;;1.67;;
19312;SDS011;9791;50.820;4.406;2023-04-03T13:41:52;5.45;;;1.50;;
19312;SDS011;9791;50.820;4.406;2023-04-03T13:46:49;5.07;;;1.52;;
19312;SDS011;9791;50.820;4.406;2023-04-03T13:51:44;8.15;;;1.73;;
19312;SDS011;9791;50.820;4.406;2023-04-03T13:56:56;6.43;;;2.50;;
19312;SDS011;9791;50.820;4.406;2023-04-03T13:59:24;4.63;;;1.73;;
19312;SDS011;9791;50.820;4.406;2023-04-03T14:01:54;4.35;;;1.60;;
19312;SDS011;9791;50.820;4.406;2023-04-03T14:04:25;12.00;;;1.85;;
19312;SDS011;9791;50.820;4.406;2023-04-03T14:06:52;4.78;;;1.73;;
19312;SDS011;9791;50.820;4.406;2023-04-03T14:09:19;6.05;;;1.95;;
19312;SDS011;9791;50.820;4.406;2023-04-03T14:11:46;4.57;;;1.60;;
19312;SDS011;9791;50.820;4.406;2023-04-03T14:14:14;4.05;;;1.67;;
19312;SDS011;9791;50.820;4.406;2023-04-03T14:16:41;4.38;;;1.63;;
19312;SDS011;9791;50.820;4.406;2023-04-03T14:19:25;4.43;;;1.80;;
19312;SDS011;9791;50.820;4.406;2023-04-03T14:21:52;4.95;;;1.77;;
19312;SDS011;9791;50.820;4.406;2023-04-03T14:24:19;3.95;;;1.80;;
19312;SDS011;9791;50.820;4.406;2023-04-03T14:26:46;6.32;;;1.83;;
19312;SDS011;9791;50.820;4.406;2023-04-03T14:29:13;5.70;;;1.60;;
19312;SDS011;9791;50.820;4.406;2023-04-03T14:31:40;4.78;;;1.88;;
19312;SDS011;9791;50.820;4.406;2023-04-03T14:34:06;4.60;;;1.63;;
19312;SDS011;9791;50.820;4.406;2023-04-03T14:36:32;3.35;;;1.45;;
19312;SDS011;9791;50.820;4.406;2023-04-03T14:38:58;6.10;;;1.85;;
19312;SDS011;9791;50.820;4.406;2023-04-03T14:41:26;7.93;;;1.80;;
19312;SDS011;9791;50.820;4.406;2023-04-03T14:43:52;6.47;;;2.00;;
19312;SDS011;9791;50.820;4.406;2023-04-03T14:46:24;5.45;;;2.22;;
19312;SDS011;9791;50.820;4.406;2023-04-03T14:48:51;4.13;;;1.80;;
19312;SDS011;9791;50.820;4.406;2023-04-03T14:51:17;4.47;;;1.77;;
19312;SDS011;9791;50.820;4.406;2023-04-03T14:53:44;3.97;;;1.42;;
19312;SDS011;9791;50.820;4.406;2023-04-03T14:56:14;4.40;;;1.70;;
19312;SDS011;9791;50.820;4.406;2023-04-03T14:58:41;5.35;;;1.50;;
19312;SDS011;9791;50.820;4.406;2023-04-03T15:01:09;4.78;;;1.63;;
19312;SDS011;9791;50.820;4.406;2023-04-03T15:03:36;5.10;;;1.70;;
19312;SDS011;9791;50.820;4.406;2023-04-03T15:06:03;7.38;;;1.77;;
19312;SDS011;9791;50.820;4.406;2023-04-03T15:08:29;3.88;;;1.42;;
19312;SDS011;9791;50.820;4.406;2023-04-03T15:10:55;6.45;;;1.50;;
19312;SDS011;9791;50.820;4.406;2023-04-03T15:13:22;6.45;;;1.67;;
19312;SDS011;9791;50.820;4.406;2023-04-03T15:15:49;5.05;;;1.52;;
19312;SDS011;9791;50.820;4.406;2023-04-03T15:18:19;6.32;;;2.70;;
19312;SDS011;9791;50.820;4.406;2023-04-03T15:20:46;5.95;;;1.77;;
19312;SDS011;9791;50.820;4.406;2023-04-03T15:23:13;4.25;;;1.48;;
19312;SDS011;9791;50.820;4.406;2023-04-03T15:25:40;4.13;;;1.40;;
19312;SDS011;9791;50.820;4.406;2023-04-03T15:28:08;4.50;;;1.50;;
19312;SDS011;9791;50.820;4.406;2023-04-03T15:30:35;8.40;;;2.40;;
19312;SDS011;9791;50.820;4.406;2023-04-03T15:33:02;4.50;;;1.95;;
19312;SDS011;9791;50.820;4.406;2023-04-03T15:35:28;4.97;;;1.60;;
19312;SDS011;9791;50.820;4.406;2023-04-03T15:37:54;6.65;;;1.92;;
19312;SDS011;9791;50.820;4.406;2023-04-03T15:40:20;6.80;;;1.92;;
19312;SDS011;9791;50.820;4.406;2023-04-03T15:42:46;3.80;;;1.80;;
19312;SDS011;9791;50.820;4.406;2023-04-03T15:45:12;3.53;;;1.92;;
19312;SDS011;9791;50.820;4.406;2023-04-03T15:47:39;6.15;;;2.25;;
19312;SDS011;9791;50.820;4.406;2023-04-03T15:50:05;3.63;;;1.50;;
19312;SDS011;9791;50.820;4.406;2023-04-03T15:52:32;3.80;;;1.88;;
19312;SDS011;9791;50.820;4.406;2023-04-03T15:54:58;7.78;;;1.80;;
19312;SDS011;9791;50.820;4.406;2023-04-03T15:57:24;4.88;;;2.00;;
19312;SDS011;9791;50.820;4.406;2023-04-03T15:59:52;5.30;;;1.75;;
19312;SDS011;9791;50.820;4.406;2023-04-03T16:02:18;4.45;;;2.17;;
19312;SDS011;9791;50.820;4.406;2023-04-03T16:04:44;4.45;;;2.00;;
19312;SDS011;9791;50.820;4.406;2023-04-03T16:07:11;5.07;;;2.00;;
19312;SDS011;9791;50.820;4.406;2023-04-03T16:09:37;4.05;;;1.90;;
19312;SDS011;9791;50.820;4.406;2023-04-03T16:12:03;5.57;;;2.22;;
19312;SDS011;9791;50.820;4.406;2023-04-03T16:14:29;4.75;;;1.92;;
19312;SDS011;9791;50.820;4.406;2023-04-03T16:16:56;4.82;;;2.17;;
19312;SDS011;9791;50.820;4.406;2023-04-03T16:19:22;3.90;;;1.67;;
19312;SDS011;9791;50.820;4.406;2023-04-03T16:21:48;5.97;;;1.88;;
19312;SDS011;9791;50.820;4.406;2023-04-03T16:24:15;9.05;;;2.67;;
19312;SDS011;9791;50.820;4.406;2023-04-03T16:26:41;5.32;;;2.35;;
19312;SDS011;9791;50.820;4.406;2023-04-03T16:29:07;8.70;;;2.33;;